createdAt,value
2018-12-27T00:02:09.439Z,103055.12
2018-12-27T00:04:37.348Z,103049.50
2018-12-27T00:07:05.179Z,103053.82
2018-12-27T00:09:36.393Z,103059.36
2018-12-27T00:12:04.520Z,103047.22
2018-12-27T00:14:32.420Z,103050.20
2018-12-27T00:17:00.484Z,103053.11
2018-12-27T00:19:28.540Z,103050.13
2018-12-27T00:21:56.622Z,103054.02
2018-12-27T00:24:24.534Z,103052.30
2018-12-27T00:26:52.399Z,103050.13
2018-12-27T00:29:22.454Z,103047.47
2018-12-27T00:31:50.401Z,103043.06
2018-12-27T00:34:18.473Z,103051.14
2018-12-27T00:36:46.428Z,103045.82
2018-12-27T00:39:14.531Z,103045.38
2018-12-27T00:41:42.590Z,103058.75
2018-12-27T00:44:10.628Z,103052.23
2018-12-27T00:46:38.654Z,103058.70
2018-12-27T00:49:06.429Z,103048.27
2018-12-27T00:51:38.796Z,103050.33
2018-12-27T00:54:06.698Z,103045.95
2018-12-27T00:56:34.636Z,103044.64
2018-12-27T00:59:02.582Z,103049.73
2018-12-27T01:01:30.720Z,103043.66
2018-12-27T01:03:58.744Z,103053.06
2018-12-27T01:06:26.815Z,103049.06
2018-12-27T01:08:54.732Z,103049.86
2018-12-27T01:11:22.830Z,103050.33
2018-12-27T01:13:50.844Z,103046.44
2018-12-27T01:16:18.856Z,103040.43
2018-12-27T01:18:46.864Z,103046.80
2018-12-27T01:21:16.377Z,103051.61
2018-12-27T01:23:44.387Z,103042.16
2018-12-27T01:26:12.295Z,103044.63
2018-12-27T01:28:40.391Z,103046.80
2018-12-27T01:31:08.227Z,103054.98
2018-12-27T01:33:36.196Z,103042.39
2018-12-27T01:36:04.107Z,103041.89
2018-12-27T01:38:34.558Z,103035.44
2018-12-27T01:41:02.485Z,103035.08
2018-12-27T01:43:30.496Z,103047.10
2018-12-27T01:45:58.684Z,103038.61
2018-12-27T01:48:26.724Z,103049.00
2018-12-27T01:50:54.792Z,103045.96
2018-12-27T01:53:22.751Z,103038.61
2018-12-27T01:55:50.687Z,103038.95
2018-12-27T01:58:20.965Z,103038.61
2018-12-27T02:00:48.940Z,103036.90
2018-12-27T02:03:16.946Z,103040.34
2018-12-27T02:05:44.916Z,103036.94
2018-12-27T02:08:13.051Z,103034.31
2018-12-27T02:10:41.465Z,103035.64
2018-12-27T02:13:14.256Z,103026.56
2018-12-27T02:15:42.240Z,103023.03
2018-12-27T02:18:10.353Z,103025.61
2018-12-27T02:20:38.293Z,103020.37
2018-12-27T02:23:08.443Z,103014.77
2018-12-27T02:25:39.050Z,103011.84
2018-12-27T02:28:09.006Z,103014.86
2018-12-27T02:30:37.004Z,103014.41
2018-12-27T02:33:05.004Z,103010.03
2018-12-27T02:35:33.074Z,103024.27
2018-12-27T02:38:01.108Z,103010.03
2018-12-27T02:40:29.119Z,103015.16
2018-12-27T02:42:57.131Z,102998.26
2018-12-27T02:45:25.104Z,103002.09
2018-12-27T02:47:53.190Z,103000.00
2018-12-27T02:50:23.847Z,103015.05
2018-12-27T02:52:52.884Z,103001.30
2018-12-27T02:55:21.214Z,102997.41
2018-12-27T02:57:49.686Z,102996.09
2018-12-27T03:00:18.290Z,102993.41
2018-12-27T03:02:49.013Z,102989.95
2018-12-27T03:05:17.763Z,102999.81
2018-12-27T03:07:45.997Z,102988.94
2018-12-27T03:10:21.089Z,102987.20
2018-12-27T03:12:55.634Z,102978.12
2018-12-27T03:15:27.783Z,102971.91
2018-12-27T03:17:56.703Z,102973.16
2018-12-27T03:20:30.579Z,102971.41
2018-12-27T03:22:58.853Z,102976.13
2018-12-27T03:25:33.230Z,102965.68
2018-12-27T03:28:01.571Z,102966.47
2018-12-27T03:30:31.363Z,102966.52
2018-12-27T03:33:00.641Z,102960.06
2018-12-27T03:35:31.393Z,102957.81
2018-12-27T03:38:00.749Z,102952.23
2018-12-27T03:40:30.189Z,102951.73
2018-12-27T03:42:58.929Z,102961.89
2018-12-27T03:45:26.963Z,102945.36
2018-12-27T03:47:55.075Z,102943.17
2018-12-27T03:50:23.178Z,102937.12
2018-12-27T03:52:51.462Z,102936.73
2018-12-27T03:55:19.427Z,102926.89
2018-12-27T03:57:47.468Z,102923.43
2018-12-27T04:00:15.773Z,102923.84
2018-12-27T04:02:46.483Z,102927.67
2018-12-27T04:05:15.058Z,102919.48
2018-12-27T04:07:45.641Z,102920.70
2018-12-27T04:10:13.622Z,102918.93
2018-12-27T04:12:41.576Z,102914.27
2018-12-27T04:15:09.538Z,102911.67
2018-12-27T04:17:39.492Z,102915.25
2018-12-27T04:20:07.458Z,102910.58
2018-12-27T04:22:37.721Z,102914.37
2018-12-27T04:25:05.901Z,102910.43
2018-12-27T04:27:33.779Z,102909.23
2018-12-27T04:30:01.639Z,102906.20
2018-12-27T04:32:30.375Z,102909.66
2018-12-27T04:34:58.512Z,102903.63
2018-12-27T04:37:26.308Z,102904.50
2018-12-27T04:39:54.270Z,102901.06
2018-12-27T04:42:22.139Z,102898.92
2018-12-27T04:44:50.019Z,102895.88
2018-12-27T04:47:18.135Z,102896.72
2018-12-27T04:49:46.021Z,102888.59
2018-12-27T04:52:15.964Z,102893.23
2018-12-27T04:54:43.896Z,102898.75
2018-12-27T04:57:11.790Z,102898.31
2018-12-27T04:59:39.857Z,102897.47
2018-12-27T05:02:07.933Z,102905.64
2018-12-27T05:04:35.809Z,102896.55
2018-12-27T05:07:05.564Z,102897.77
2018-12-27T05:09:33.425Z,102890.84
2018-12-27T05:12:01.305Z,102892.59
2018-12-27T05:14:29.356Z,102901.70
2018-12-27T05:16:59.447Z,102903.00
2018-12-27T05:19:28.965Z,102894.26
2018-12-27T05:21:56.978Z,102904.13
2018-12-27T05:24:24.899Z,102905.42
2018-12-27T05:26:52.922Z,102897.70
2018-12-27T05:29:20.983Z,102906.73
2018-12-27T05:31:48.937Z,102901.19
2018-12-27T05:34:25.993Z,102897.80
2018-12-27T05:36:48.730Z,102900.92
2018-12-27T05:39:16.679Z,102903.94
2018-12-27T05:41:44.765Z,102903.87
2018-12-27T05:44:15.822Z,102907.54
2018-12-27T05:46:43.699Z,102908.92
2018-12-27T05:49:11.572Z,102916.23
2018-12-27T05:51:39.501Z,102919.53
2018-12-27T05:54:10.366Z,102909.37
2018-12-27T05:56:40.628Z,102920.75
2018-12-27T05:59:08.639Z,102919.04
2018-12-27T06:01:36.565Z,102913.54
2018-12-27T06:04:04.493Z,102916.20
2018-12-27T06:06:34.791Z,102928.77
2018-12-27T06:09:04.591Z,102923.95
2018-12-27T06:11:32.569Z,102923.22
2018-12-27T06:14:00.532Z,102927.67
2018-12-27T06:16:29.670Z,102927.30
2018-12-27T06:18:59.892Z,102929.89
2018-12-27T06:21:27.922Z,102919.15
2018-12-27T06:23:55.963Z,102918.62
2018-12-27T06:26:24.004Z,102920.45
2018-12-27T06:28:54.297Z,102918.86
2018-12-27T06:31:23.723Z,102927.52
2018-12-27T06:33:53.414Z,102921.44
2018-12-27T06:36:21.460Z,102922.37
2018-12-27T06:38:49.406Z,102922.05
2018-12-27T06:41:20.471Z,102916.94
2018-12-27T06:43:48.545Z,102913.47
2018-12-27T06:46:16.408Z,102909.56
2018-12-27T06:48:44.250Z,102904.09
2018-12-27T06:51:12.193Z,102907.63
2018-12-27T06:53:39.935Z,102907.50
2018-12-27T06:56:07.820Z,102912.39
2018-12-27T06:58:37.845Z,102914.98
2018-12-27T07:01:05.310Z,102916.74
2018-12-27T07:03:33.199Z,102921.09
2018-12-27T07:06:01.030Z,102923.69
2018-12-27T07:08:28.973Z,102920.23
2018-12-27T07:10:56.961Z,102918.34
2018-12-27T07:13:24.761Z,102926.96
2018-12-27T07:15:52.576Z,102920.55
2018-12-27T07:18:20.470Z,102931.25
2018-12-27T07:20:48.460Z,102930.44
2018-12-27T07:23:16.327Z,102929.05
2018-12-27T07:25:44.109Z,102934.31
2018-12-27T07:28:11.923Z,102938.70
2018-12-27T07:30:39.844Z,102938.80
2018-12-27T07:33:07.632Z,102931.41
2018-12-27T07:35:35.520Z,102926.73
2018-12-27T07:38:05.255Z,102924.64
2018-12-27T07:40:33.181Z,102925.55
2018-12-27T07:43:00.968Z,102920.39
2018-12-27T07:45:28.889Z,102916.91
2018-12-27T07:47:56.664Z,102916.86
2018-12-27T07:50:24.518Z,102915.24
2018-12-27T07:52:52.386Z,102907.56
2018-12-27T07:55:20.278Z,102902.48
2018-12-27T07:57:48.250Z,102903.00
2018-12-27T08:00:16.111Z,102902.18
2018-12-27T08:02:44.031Z,102901.39
2018-12-27T08:05:11.839Z,102901.45
2018-12-27T08:07:39.659Z,102904.87
2018-12-27T08:10:07.578Z,102907.92
2018-12-27T08:12:35.453Z,102904.89
2018-12-27T08:15:03.451Z,102903.22
2018-12-27T08:17:31.325Z,102898.06
2018-12-27T08:19:59.206Z,102903.71
2018-12-27T08:22:26.999Z,102916.16
2018-12-27T08:24:54.925Z,102908.91
2018-12-27T08:27:22.716Z,102900.77
2018-12-27T08:29:50.491Z,102903.82
2018-12-27T08:32:18.422Z,102895.11
2018-12-27T08:34:46.250Z,102892.79
2018-12-27T08:37:14.058Z,102893.73
2018-12-27T08:39:41.971Z,102888.56
2018-12-27T08:42:09.739Z,102891.39
2018-12-27T08:44:37.544Z,102879.95
2018-12-27T08:47:05.415Z,102885.18
2018-12-27T08:49:33.390Z,102882.72
2018-12-27T08:52:01.475Z,102878.48
2018-12-27T08:54:29.489Z,102881.06
2018-12-27T08:56:57.311Z,102878.55
2018-12-27T08:59:25.313Z,102873.84
2018-12-27T09:01:53.175Z,102868.43
2018-12-27T09:04:24.046Z,102863.73
2018-12-27T09:06:51.874Z,102871.10
2018-12-27T09:09:19.777Z,102869.00
2018-12-27T09:11:47.656Z,102859.55
2018-12-27T09:14:16.047Z,102844.91
2018-12-27T09:16:43.920Z,102855.38
2018-12-27T09:19:11.902Z,102855.38
2018-12-27T09:21:45.482Z,102851.05
2018-12-27T09:24:13.376Z,102847.23
2018-12-27T09:26:41.247Z,102858.89
2018-12-27T09:29:09.368Z,102855.39
2018-12-27T09:31:39.141Z,102855.05
2018-12-27T09:34:07.181Z,102848.52
2018-12-27T09:36:38.050Z,102857.11
2018-12-27T09:39:07.576Z,102848.50
2018-12-27T09:41:35.618Z,102842.50
2018-12-27T09:44:05.024Z,102836.09
2018-12-27T09:46:33.034Z,102838.02
2018-12-27T09:49:01.507Z,102822.54
2018-12-27T09:51:39.235Z,102816.47
2018-12-27T09:54:07.272Z,102804.38
2018-12-27T09:56:41.697Z,102808.30
2018-12-27T09:59:11.324Z,102818.72
2018-12-27T10:01:42.903Z,102835.14
2018-12-27T10:04:17.854Z,102842.50
2018-12-27T10:06:49.876Z,102843.39
2018-12-27T10:09:18.090Z,102832.56
2018-12-27T10:11:46.101Z,102822.19
2018-12-27T10:14:14.131Z,102826.93
2018-12-27T10:16:42.165Z,102831.70
2018-12-27T10:19:10.135Z,102832.58
2018-12-27T10:21:38.090Z,102835.19
2018-12-27T10:24:06.098Z,102827.36
2018-12-27T10:26:33.990Z,102819.59
2018-12-27T10:29:02.021Z,102831.27
2018-12-27T10:31:29.814Z,102822.17
2018-12-27T10:33:57.652Z,102823.89
2018-12-27T10:36:25.620Z,102810.84
2018-12-27T10:38:59.951Z,102821.61
2018-12-27T10:41:27.822Z,102812.48
2018-12-27T10:43:55.731Z,102816.78
2018-12-27T10:46:28.424Z,102817.25
2018-12-27T10:48:56.276Z,102815.52
2018-12-27T10:51:24.190Z,102818.88
2018-12-27T10:53:52.205Z,102816.79
2018-12-27T10:56:20.167Z,102819.00
2018-12-27T10:58:48.152Z,102814.98
2018-12-27T11:01:20.257Z,102812.87
2018-12-27T11:03:48.326Z,102804.45
2018-12-27T11:06:16.196Z,102801.66
2018-12-27T11:08:44.035Z,102808.80
2018-12-27T11:11:12.088Z,102797.41
2018-12-27T11:13:40.021Z,102791.71
2018-12-27T11:16:08.038Z,102794.02
2018-12-27T11:18:36.031Z,102791.53
2018-12-27T11:21:03.979Z,102787.44
2018-12-27T11:23:32.793Z,102783.30
2018-12-27T11:26:00.774Z,102784.58
2018-12-27T11:28:28.774Z,102780.91
2018-12-27T11:30:58.101Z,102772.61
2018-12-27T11:33:26.143Z,102767.57
2018-12-27T11:35:55.894Z,102761.53
2018-12-27T11:38:23.885Z,102765.07
2018-12-27T11:40:51.850Z,102763.45
2018-12-27T11:43:19.762Z,102755.91
2018-12-27T11:45:47.698Z,102756.08
2018-12-27T11:48:15.631Z,102758.89
2018-12-27T11:50:43.491Z,102759.25
2018-12-27T11:53:11.400Z,102750.98
2018-12-27T11:55:41.647Z,102752.09
2018-12-27T11:58:09.563Z,102749.95
2018-12-27T12:00:37.931Z,102753.22
2018-12-27T12:03:05.992Z,102745.25
2018-12-27T12:05:33.989Z,102746.50
2018-12-27T12:08:01.854Z,102755.36
2018-12-27T12:10:29.778Z,102742.13
2018-12-27T12:12:57.754Z,102738.84
2018-12-27T12:15:25.542Z,102739.07
2018-12-27T12:17:53.415Z,102741.09
2018-12-27T12:20:30.221Z,102740.98
2018-12-27T12:22:58.148Z,102741.86
2018-12-27T12:25:28.281Z,102735.66
2018-12-27T12:27:56.637Z,102736.75
2018-12-27T12:30:24.810Z,102730.61
2018-12-27T12:32:58.955Z,102732.76
2018-12-27T12:35:27.579Z,102730.58
2018-12-27T12:37:56.031Z,102729.02
2018-12-27T12:40:27.028Z,102721.93
2018-12-27T12:42:57.844Z,102722.23
2018-12-27T12:45:25.994Z,102722.59
2018-12-27T12:47:57.500Z,102730.80
2018-12-27T12:50:28.588Z,102724.91
2018-12-27T12:52:59.973Z,102720.36
2018-12-27T12:55:28.311Z,102729.66
2018-12-27T12:57:59.343Z,102729.11
2018-12-27T13:00:29.487Z,102733.09
2018-12-27T13:03:02.843Z,102729.89
2018-12-27T13:05:30.999Z,102731.37
2018-12-27T13:08:01.856Z,102734.00
2018-12-27T13:10:33.413Z,102732.14
2018-12-27T13:13:02.841Z,102737.31
2018-12-27T13:15:30.885Z,102734.14
2018-12-27T13:18:03.184Z,102737.47
2018-12-27T13:20:33.475Z,102737.47
2018-12-27T13:23:01.771Z,102742.53
2018-12-27T13:25:32.881Z,102740.92
2018-12-27T13:28:01.286Z,102732.28
2018-12-27T13:30:32.219Z,102734.30
2018-12-27T13:33:02.691Z,102722.33
2018-12-27T13:35:42.995Z,102719.54
2018-12-27T13:38:11.436Z,102729.92
2018-12-27T13:40:44.078Z,102721.02
2018-12-27T13:43:12.167Z,102728.22
2018-12-27T13:45:42.618Z,102725.55
2018-12-27T13:48:12.745Z,102724.73
2018-12-27T13:50:41.062Z,102722.92
2018-12-27T13:53:09.648Z,102736.57
2018-12-27T13:55:38.190Z,102731.37
2018-12-27T13:58:07.967Z,102733.73
2018-12-27T14:00:36.568Z,102739.34
2018-12-27T14:03:07.059Z,102736.64
2018-12-27T14:05:40.492Z,102733.71
2018-12-27T14:08:11.710Z,102734.61
2018-12-27T14:10:39.650Z,102734.23
2018-12-27T14:13:07.688Z,102736.61
2018-12-27T14:15:35.555Z,102728.42
2018-12-27T14:18:03.993Z,102726.95
2018-12-27T14:20:32.062Z,102727.59
2018-12-27T14:22:59.932Z,102730.20
2018-12-27T14:25:27.884Z,102722.60
2018-12-27T14:27:55.941Z,102728.72
2018-12-27T14:30:23.842Z,102728.80
2018-12-27T14:32:51.734Z,102731.66
2018-12-27T14:35:20.203Z,102728.35
2018-12-27T14:37:48.193Z,102728.30
2018-12-27T14:40:16.149Z,102733.00
2018-12-27T14:42:44.147Z,102738.58
2018-12-27T14:45:12.261Z,102744.91
2018-12-27T14:47:43.217Z,102749.50
2018-12-27T14:50:11.326Z,102738.30
2018-12-27T14:52:39.292Z,102737.87
2018-12-27T14:55:07.483Z,102740.98
2018-12-27T14:57:35.488Z,102740.59
2018-12-27T15:00:08.101Z,102731.05
2018-12-27T15:02:36.407Z,102727.73
2018-12-27T15:05:07.960Z,102728.13
2018-12-27T15:07:43.954Z,102728.13
2018-12-27T15:10:15.719Z,102730.75
2018-12-27T15:12:43.704Z,102735.10
2018-12-27T15:15:13.287Z,102733.81
2018-12-27T15:17:41.397Z,102736.03
2018-12-27T15:20:11.130Z,102729.13
2018-12-27T15:22:43.008Z,102724.86
2018-12-27T15:25:13.059Z,102718.84
2018-12-27T15:27:46.479Z,102702.48
2018-12-27T15:30:16.948Z,102707.73
2018-12-27T15:32:48.324Z,102698.19
2018-12-27T15:35:16.631Z,102704.44
2018-12-27T15:37:44.993Z,102704.05
2018-12-27T15:40:13.825Z,102704.81
2018-12-27T15:42:42.001Z,102713.02
2018-12-27T15:45:11.629Z,102711.34
2018-12-27T15:47:39.610Z,102719.55
2018-12-27T15:50:08.036Z,102711.68
2018-12-27T15:52:39.298Z,102716.44
2018-12-27T15:55:07.611Z,102706.00
2018-12-27T15:57:35.762Z,102697.81
2018-12-27T16:00:04.099Z,102702.16
2018-12-27T16:02:32.029Z,102718.23
2018-12-27T16:05:00.207Z,102740.39
2018-12-27T16:07:30.404Z,102731.37
2018-12-27T16:09:58.436Z,102730.08
2018-12-27T16:12:29.455Z,102727.53
2018-12-27T16:14:57.604Z,102738.83
2018-12-27T16:17:25.706Z,102727.60
2018-12-27T16:19:54.053Z,102730.65
2018-12-27T16:22:24.554Z,102717.31
2018-12-27T16:24:52.711Z,102715.98
2018-12-27T16:27:20.762Z,102717.36
2018-12-27T16:29:51.015Z,102718.19
2018-12-27T16:32:24.152Z,102723.83
2018-12-27T16:34:52.236Z,102717.77
2018-12-27T16:37:20.155Z,102703.06
2018-12-27T16:39:48.269Z,102702.66
2018-12-27T16:42:24.719Z,102735.89
2018-12-27T16:44:56.611Z,102712.09
2018-12-27T16:47:24.872Z,102714.16
2018-12-27T16:49:53.108Z,102710.66
2018-12-27T16:52:21.157Z,102701.08
2018-12-27T16:54:49.305Z,102715.81
2018-12-27T16:57:19.911Z,102718.39
2018-12-27T16:59:50.531Z,102715.31
2018-12-27T17:02:26.508Z,102707.94
2018-12-27T17:04:54.542Z,102712.33
2018-12-27T17:07:22.673Z,102721.08
2018-12-27T17:09:50.657Z,102712.41
2018-12-27T17:12:19.747Z,102716.75
2018-12-27T17:14:47.847Z,102721.95
2018-12-27T17:17:17.347Z,102721.50
2018-12-27T17:19:45.436Z,102720.20
2018-12-27T17:22:16.527Z,102709.84
2018-12-27T17:24:44.625Z,102708.52
2018-12-27T17:27:12.637Z,102716.34
2018-12-27T17:29:40.538Z,102723.72
2018-12-27T17:32:09.201Z,102735.02
2018-12-27T17:34:37.519Z,102729.86
2018-12-27T17:37:05.515Z,102734.63
2018-12-27T17:39:35.124Z,102732.02
2018-12-27T17:42:03.044Z,102732.04
2018-12-27T17:44:31.004Z,102735.08
2018-12-27T17:46:58.905Z,102731.63
2018-12-27T17:49:27.025Z,102721.26
2018-12-27T17:51:54.966Z,102731.67
2018-12-27T17:54:22.938Z,102720.42
2018-12-27T17:56:50.880Z,102734.71
2018-12-27T17:59:18.921Z,102729.55
2018-12-27T18:01:46.823Z,102730.86
2018-12-27T18:04:14.777Z,102736.03
2018-12-27T18:06:42.633Z,102745.56
2018-12-27T18:09:10.538Z,102749.91
2018-12-27T18:11:38.494Z,102751.63
2018-12-27T18:14:06.309Z,102761.57
2018-12-27T18:16:34.181Z,102759.85
2018-12-27T18:19:02.101Z,102767.20
2018-12-27T18:21:30.010Z,102759.87
2018-12-27T18:23:57.840Z,102758.13
2018-12-27T18:26:25.646Z,102754.23
2018-12-27T18:28:54.556Z,102752.08
2018-12-27T18:31:23.031Z,102758.58
2018-12-27T18:33:51.522Z,102764.61
2018-12-27T18:36:19.571Z,102752.94
2018-12-27T18:38:48.723Z,102761.58
2018-12-27T18:41:19.715Z,102767.67
2018-12-27T18:43:47.713Z,102763.78
2018-12-27T18:46:15.610Z,102761.59
2018-12-27T18:48:43.714Z,102768.95
2018-12-27T18:51:11.813Z,102757.27
2018-12-27T18:53:41.030Z,102769.81
2018-12-27T18:56:10.503Z,102759.44
2018-12-27T18:58:38.451Z,102770.25
2018-12-27T19:01:09.518Z,102766.80
2018-12-27T19:03:40.085Z,102768.95
2018-12-27T19:06:07.895Z,102764.21
2018-12-27T19:08:37.568Z,102762.48
2018-12-27T19:12:00.540Z,102768.09
2018-12-27T19:14:28.498Z,102761.59
2018-12-27T19:16:57.744Z,102755.95
2018-12-27T19:19:25.779Z,102762.46
2018-12-27T19:22:39.558Z,102755.97
2018-12-27T19:25:07.570Z,102758.13
2018-12-27T19:27:35.483Z,102749.44
2018-12-27T19:30:05.788Z,102756.78
2018-12-27T19:32:35.931Z,102759.40
2018-12-27T19:35:06.276Z,102751.61
2018-12-27T19:37:35.685Z,102753.80
2018-12-27T19:40:04.485Z,102753.80
2018-12-27T19:42:32.624Z,102748.59
2018-12-27T19:45:01.532Z,102753.30
2018-12-27T19:47:30.336Z,102756.78
2018-12-27T19:49:58.329Z,102758.08
2018-12-27T19:52:26.500Z,102759.28
2018-12-27T19:54:54.780Z,102762.80
2018-12-27T19:57:22.609Z,102759.80
2018-12-27T19:59:51.194Z,102762.83
2018-12-27T20:02:19.181Z,102761.09
2018-12-27T20:04:47.202Z,102771.05
2018-12-27T20:07:17.309Z,102761.12
2018-12-27T20:09:45.572Z,102765.42
2018-12-27T20:12:13.421Z,102773.20
2018-12-27T20:14:41.342Z,102775.76
2018-12-27T20:17:10.471Z,102768.87
2018-12-27T20:19:38.331Z,102777.09
2018-12-27T20:22:06.357Z,102777.09
2018-12-27T20:24:34.208Z,102774.46
2018-12-27T20:27:04.871Z,102777.50
2018-12-27T20:29:32.754Z,102780.94
2018-12-27T20:32:00.654Z,102771.46
2018-12-27T20:34:28.705Z,102772.75
2018-12-27T20:36:56.688Z,102775.38
2018-12-27T20:39:24.640Z,102772.34
2018-12-27T20:41:54.870Z,102771.91
2018-12-27T20:44:23.772Z,102779.68
2018-12-27T20:46:51.682Z,102778.42
2018-12-27T20:49:19.850Z,102780.13
2018-12-27T20:51:47.791Z,102781.01
2018-12-27T20:54:17.092Z,102778.41
2018-12-27T20:56:45.367Z,102771.05
2018-12-27T20:59:13.232Z,102777.53
2018-12-27T21:01:41.139Z,102770.16
2018-12-27T21:04:11.636Z,102770.13
2018-12-27T21:06:40.772Z,102773.09
2018-12-27T21:09:08.612Z,102767.90
2018-12-27T21:11:41.596Z,102766.56
2018-12-27T21:14:10.592Z,102769.55
2018-12-27T21:16:38.614Z,102769.06
2018-12-27T21:19:06.566Z,102770.79
2018-12-27T21:21:34.479Z,102780.30
2018-12-27T21:24:02.290Z,102791.97
2018-12-27T21:26:30.856Z,102783.30
2018-12-27T21:28:59.299Z,102784.61
2018-12-27T21:31:27.374Z,102793.66
2018-12-27T21:33:55.337Z,102808.66
2018-12-27T21:36:27.204Z,102817.66
2018-12-27T21:38:55.342Z,102813.84
2018-12-27T21:41:24.672Z,102816.77
2018-12-27T21:43:55.455Z,102818.05
2018-12-27T21:46:23.565Z,102812.47
2018-12-27T21:48:56.319Z,102818.95
2018-12-27T21:51:24.430Z,102815.43
2018-12-27T21:53:55.599Z,102821.00
2018-12-27T21:56:26.245Z,102813.70
2018-12-27T21:58:54.245Z,102819.33
2018-12-27T22:01:29.680Z,102820.17
2018-12-27T22:03:59.572Z,102826.16
2018-12-27T22:06:32.262Z,102823.97
2018-12-27T22:09:05.029Z,102831.73
2018-12-27T22:11:35.311Z,102833.00
2018-12-27T22:14:12.550Z,102823.41
2018-12-27T22:16:46.504Z,102826.84
2018-12-27T22:19:17.214Z,102825.05
2018-12-27T22:21:47.574Z,102832.73
2018-12-27T22:24:15.710Z,102837.44
2018-12-27T22:26:49.347Z,102835.17
2018-12-27T22:29:22.668Z,102835.17
2018-12-27T22:31:50.985Z,102823.88
2018-12-27T22:34:24.109Z,102821.10
2018-12-27T22:36:55.303Z,102822.80
2018-12-27T22:39:23.213Z,102828.38
2018-12-27T22:41:51.214Z,102824.48
2018-12-27T22:46:49.548Z,102817.38
2018-12-27T22:49:20.860Z,102825.48
2018-12-27T22:51:56.395Z,102826.86
2018-12-27T22:54:24.390Z,102822.91
2018-12-27T22:56:52.291Z,102827.55
2018-12-27T22:59:22.029Z,102824.04
2018-12-27T23:01:50.060Z,102821.58
2018-12-27T23:04:20.690Z,102807.62
2018-12-27T23:06:55.608Z,102808.05
2018-12-27T23:09:23.693Z,102808.06
2018-12-27T23:11:53.351Z,102803.82
2018-12-27T23:14:21.550Z,102809.86
2018-12-27T23:16:49.524Z,102804.37
2018-12-27T23:19:17.557Z,102800.45
2018-12-27T23:21:49.250Z,102793.05
2018-12-27T23:24:20.035Z,102786.95
2018-12-27T23:26:59.463Z,102799.81
2018-12-27T23:29:32.300Z,102800.66
2018-12-27T23:32:03.590Z,102806.25
2018-12-27T23:34:34.484Z,102806.19
2018-12-27T23:37:10.780Z,102798.58
2018-12-27T23:39:46.492Z,102782.59
2018-12-27T23:42:14.541Z,102787.42
2018-12-27T23:44:51.160Z,102781.88
2018-12-27T23:47:19.135Z,102788.06
2018-12-27T23:49:49.670Z,102774.15
2018-12-27T23:52:25.328Z,102770.62
2018-12-27T23:54:57.869Z,102765.91
2018-12-27T23:57:25.907Z,102765.47
2018-12-27T23:59:53.965Z,102763.34
